sensor_id;sensor_type;location;lat;lon;timestamp;temperature;humidity
68719;DHT22;55696;52.138;5.444;2022-07-23T00:00:14;19.10;61.50
68719;DHT22;55696;52.138;5.444;2022-07-23T00:02:42;19.10;61.70
68719;DHT22;55696;52.138;5.444;2022-07-23T00:05:09;19.10;61.80
68719;DHT22;55696;52.138;5.444;2022-07-23T00:07:36;19.00;62.00
68719;DHT22;55696;52.138;5.444;2022-07-23T00:10:03;18.90;62.00
68719;DHT22;55696;52.138;5.444;2022-07-23T00:12:30;18.90;62.20
68719;DHT22;55696;52.138;5.444;2022-07-23T00:14:57;18.90;62.20
68719;DHT22;55696;52.138;5.444;2022-07-23T00:17:24;18.80;62.30
68719;DHT22;55696;52.138;5.444;2022-07-23T00:19:50;18.80;62.40
68719;DHT22;55696;52.138;5.444;2022-07-23T00:22:17;18.80;62.50
68719;DHT22;55696;52.138;5.444;2022-07-23T00:24:44;18.80;62.60
68719;DHT22;55696;52.138;5.444;2022-07-23T00:27:29;18.80;62.80
68719;DHT22;55696;52.138;5.444;2022-07-23T00:29:56;18.80;62.80
68719;DHT22;55696;52.138;5.444;2022-07-23T00:32:22;18.70;63.00
68719;DHT22;55696;52.138;5.444;2022-07-23T00:35:09;18.70;63.10
68719;DHT22;55696;52.138;5.444;2022-07-23T00:37:36;18.70;63.10
68719;DHT22;55696;52.138;5.444;2022-07-23T00:40:03;18.70;63.20
68719;DHT22;55696;52.138;5.444;2022-07-23T00:42:31;18.70;63.40
68719;DHT22;55696;52.138;5.444;2022-07-23T00:44:58;18.50;63.60
68719;DHT22;55696;52.138;5.444;2022-07-23T00:47:25;18.60;63.50
68719;DHT22;55696;52.138;5.444;2022-07-23T00:49:52;18.50;63.60
68719;DHT22;55696;52.138;5.444;2022-07-23T00:52:19;18.60;63.60
68719;DHT22;55696;52.138;5.444;2022-07-23T00:54:46;18.40;63.60
68719;DHT22;55696;52.138;5.444;2022-07-23T00:57:13;18.50;63.90
68719;DHT22;55696;52.138;5.444;2022-07-23T00:59:40;18.50;63.90
68719;DHT22;55696;52.138;5.444;2022-07-23T01:02:07;18.20;63.80
68719;DHT22;55696;52.138;5.444;2022-07-23T01:04:34;18.50;64.00
68719;DHT22;55696;52.138;5.444;2022-07-23T01:07:01;18.40;64.00
68719;DHT22;55696;52.138;5.444;2022-07-23T01:09:28;18.40;64.10
68719;DHT22;55696;52.138;5.444;2022-07-23T01:11:56;18.50;64.20
68719;DHT22;55696;52.138;5.444;2022-07-23T01:14:23;18.40;64.30
68719;DHT22;55696;52.138;5.444;2022-07-23T01:16:50;18.40;64.20
68719;DHT22;55696;52.138;5.444;2022-07-23T01:19:19;18.50;64.40
68719;DHT22;55696;52.138;5.444;2022-07-23T01:21:50;18.50;64.40
68719;DHT22;55696;52.138;5.444;2022-07-23T01:24:18;18.40;64.70
68719;DHT22;55696;52.138;5.444;2022-07-23T01:27:05;18.40;64.20
68719;DHT22;55696;52.138;5.444;2022-07-23T01:29:35;18.40;64.20
68719;DHT22;55696;52.138;5.444;2022-07-23T01:32:06;18.40;64.20
68719;DHT22;55696;52.138;5.444;2022-07-23T01:34:33;18.30;64.30
68719;DHT22;55696;52.138;5.444;2022-07-23T01:37:00;18.30;65.30
68719;DHT22;55696;52.138;5.444;2022-07-23T01:39:27;18.30;64.40
68719;DHT22;55696;52.138;5.444;2022-07-23T01:41:54;18.20;64.60
68719;DHT22;55696;52.138;5.444;2022-07-23T01:44:22;18.10;64.70
68719;DHT22;55696;52.138;5.444;2022-07-23T01:46:49;18.10;64.70
68719;DHT22;55696;52.138;5.444;2022-07-23T01:49:17;18.10;64.80
68719;DHT22;55696;52.138;5.444;2022-07-23T01:52:02;18.00;65.30
68719;DHT22;55696;52.138;5.444;2022-07-23T01:54:37;18.10;64.90
68719;DHT22;55696;52.138;5.444;2022-07-23T01:57:07;18.10;65.00
68719;DHT22;55696;52.138;5.444;2022-07-23T01:59:35;17.90;65.20
68719;DHT22;55696;52.138;5.444;2022-07-23T02:02:03;18.00;65.30
68719;DHT22;55696;52.138;5.444;2022-07-23T02:04:32;18.00;65.10
68719;DHT22;55696;52.138;5.444;2022-07-23T02:07:03;18.00;65.20
68719;DHT22;55696;52.138;5.444;2022-07-23T02:09:30;18.00;65.50
68719;DHT22;55696;52.138;5.444;2022-07-23T02:11:57;18.00;65.40
68719;DHT22;55696;52.138;5.444;2022-07-23T02:14:27;17.90;65.40
68719;DHT22;55696;52.138;5.444;2022-07-23T02:16:54;17.80;66.20
68719;DHT22;55696;52.138;5.444;2022-07-23T02:19:21;17.90;65.50
68719;DHT22;55696;52.138;5.444;2022-07-23T02:21:48;17.90;65.60
68719;DHT22;55696;52.138;5.444;2022-07-23T02:24:18;17.90;65.70
68719;DHT22;55696;52.138;5.444;2022-07-23T02:26:45;17.90;65.60
68719;DHT22;55696;52.138;5.444;2022-07-23T02:29:12;17.80;65.70
68719;DHT22;55696;52.138;5.444;2022-07-23T02:31:39;17.80;65.80
68719;DHT22;55696;52.138;5.444;2022-07-23T02:34:06;17.90;65.80
68719;DHT22;55696;52.138;5.444;2022-07-23T02:36:33;17.90;65.70
68719;DHT22;55696;52.138;5.444;2022-07-23T02:39:02;17.90;65.70
68719;DHT22;55696;52.138;5.444;2022-07-23T02:41:32;17.80;65.90
68719;DHT22;55696;52.138;5.444;2022-07-23T02:43:58;17.80;65.80
68719;DHT22;55696;52.138;5.444;2022-07-23T02:46:26;17.90;66.70
68719;DHT22;55696;52.138;5.444;2022-07-23T02:48:53;17.80;65.70
68719;DHT22;55696;52.138;5.444;2022-07-23T02:51:20;17.80;65.80
68719;DHT22;55696;52.138;5.444;2022-07-23T02:53:53;17.70;65.70
68719;DHT22;55696;52.138;5.444;2022-07-23T02:56:20;17.70;65.80
68719;DHT22;55696;52.138;5.444;2022-07-23T02:58:47;17.70;65.90
68719;DHT22;55696;52.138;5.444;2022-07-23T03:01:13;17.70;66.00
68719;DHT22;55696;52.138;5.444;2022-07-23T03:03:47;17.60;66.00
68719;DHT22;55696;52.138;5.444;2022-07-23T03:06:14;17.60;65.90
68719;DHT22;55696;52.138;5.444;2022-07-23T03:08:41;17.60;66.00
68719;DHT22;55696;52.138;5.444;2022-07-23T03:11:07;17.50;66.10
68719;DHT22;55696;52.138;5.444;2022-07-23T03:13:39;17.50;66.20
68719;DHT22;55696;52.138;5.444;2022-07-23T03:16:06;17.50;66.70
68719;DHT22;55696;52.138;5.444;2022-07-23T03:18:35;17.50;66.50
68719;DHT22;55696;52.138;5.444;2022-07-23T03:21:07;17.60;66.40
68719;DHT22;55696;52.138;5.444;2022-07-23T03:23:37;17.50;66.50
68719;DHT22;55696;52.138;5.444;2022-07-23T03:26:04;17.50;66.50
68719;DHT22;55696;52.138;5.444;2022-07-23T03:28:31;17.40;66.60
68719;DHT22;55696;52.138;5.444;2022-07-23T03:30:58;17.30;66.60
68719;DHT22;55696;52.138;5.444;2022-07-23T03:33:25;17.40;66.90
68719;DHT22;55696;52.138;5.444;2022-07-23T03:35:53;17.40;66.80
68719;DHT22;55696;52.138;5.444;2022-07-23T03:38:23;17.50;66.80
68719;DHT22;55696;52.138;5.444;2022-07-23T03:40:50;17.50;66.70
68719;DHT22;55696;52.138;5.444;2022-07-23T03:43:17;17.50;66.70
68719;DHT22;55696;52.138;5.444;2022-07-23T03:45:45;17.50;66.60
68719;DHT22;55696;52.138;5.444;2022-07-23T03:48:11;17.30;66.50
68719;DHT22;55696;52.138;5.444;2022-07-23T03:50:39;17.40;66.60
68719;DHT22;55696;52.138;5.444;2022-07-23T03:53:06;17.40;67.20
68719;DHT22;55696;52.138;5.444;2022-07-23T03:55:34;17.50;66.70
68719;DHT22;55696;52.138;5.444;2022-07-23T03:58:01;17.40;66.60
68719;DHT22;55696;52.138;5.444;2022-07-23T04:00:28;17.40;66.70
68719;DHT22;55696;52.138;5.444;2022-07-23T04:02:55;17.40;66.70
68719;DHT22;55696;52.138;5.444;2022-07-23T04:05:21;17.40;66.60
68719;DHT22;55696;52.138;5.444;2022-07-23T04:07:52;17.70;66.70
68719;DHT22;55696;52.138;5.444;2022-07-23T04:10:19;17.30;66.60
68719;DHT22;55696;52.138;5.444;2022-07-23T04:12:46;17.40;66.70
68719;DHT22;55696;52.138;5.444;2022-07-23T04:15:13;17.40;66.60
68719;DHT22;55696;52.138;5.444;2022-07-23T04:17:39;17.40;66.70
68719;DHT22;55696;52.138;5.444;2022-07-23T04:20:06;17.40;66.70
68719;DHT22;55696;52.138;5.444;2022-07-23T04:22:40;17.50;66.80
68719;DHT22;55696;52.138;5.444;2022-07-23T04:25:08;17.50;66.70
68719;DHT22;55696;52.138;5.444;2022-07-23T04:27:35;17.40;66.70
68719;DHT22;55696;52.138;5.444;2022-07-23T04:30:03;17.40;66.80
68719;DHT22;55696;52.138;5.444;2022-07-23T04:32:29;17.30;66.90
68719;DHT22;55696;52.138;5.444;2022-07-23T04:34:56;17.30;66.90
68719;DHT22;55696;52.138;5.444;2022-07-23T04:37:23;17.40;67.00
68719;DHT22;55696;52.138;5.444;2022-07-23T04:39:50;17.40;67.00
68719;DHT22;55696;52.138;5.444;2022-07-23T04:42:17;17.40;67.10
68719;DHT22;55696;52.138;5.444;2022-07-23T04:44:43;17.40;67.10
68719;DHT22;55696;52.138;5.444;2022-07-23T04:47:11;17.40;66.90
68719;DHT22;55696;52.138;5.444;2022-07-23T04:49:41;17.40;66.80
68719;DHT22;55696;52.138;5.444;2022-07-23T04:52:08;17.50;66.80
68719;DHT22;55696;52.138;5.444;2022-07-23T04:54:35;17.60;66.70
68719;DHT22;55696;52.138;5.444;2022-07-23T04:57:01;17.60;66.50
68719;DHT22;55696;52.138;5.444;2022-07-23T04:59:30;17.70;66.50
68719;DHT22;55696;52.138;5.444;2022-07-23T05:02:01;17.70;66.50
68719;DHT22;55696;52.138;5.444;2022-07-23T05:04:28;17.80;66.60
68719;DHT22;55696;52.138;5.444;2022-07-23T05:06:55;17.80;66.50
68719;DHT22;55696;52.138;5.444;2022-07-23T05:09:22;17.80;66.40
68719;DHT22;55696;52.138;5.444;2022-07-23T05:11:50;17.90;66.50
68719;DHT22;55696;52.138;5.444;2022-07-23T05:14:17;17.80;66.50
68719;DHT22;55696;52.138;5.444;2022-07-23T05:16:44;18.00;66.50
68719;DHT22;55696;52.138;5.444;2022-07-23T05:19:17;18.00;66.40
68719;DHT22;55696;52.138;5.444;2022-07-23T05:21:47;18.10;66.30
68719;DHT22;55696;52.138;5.444;2022-07-23T05:24:14;18.10;66.20
68719;DHT22;55696;52.138;5.444;2022-07-23T05:26:41;18.30;66.10
68719;DHT22;55696;52.138;5.444;2022-07-23T05:29:09;18.40;65.80
68719;DHT22;55696;52.138;5.444;2022-07-23T05:31:36;18.50;65.60
68719;DHT22;55696;52.138;5.444;2022-07-23T05:34:04;18.40;65.20
68719;DHT22;55696;52.138;5.444;2022-07-23T05:36:32;18.70;65.10
68719;DHT22;55696;52.138;5.444;2022-07-23T05:39:00;18.80;65.00
68719;DHT22;55696;52.138;5.444;2022-07-23T05:41:29;18.90;64.70
68719;DHT22;55696;52.138;5.444;2022-07-23T05:43:56;18.80;64.50
68719;DHT22;55696;52.138;5.444;2022-07-23T05:46:24;19.00;64.40
68719;DHT22;55696;52.138;5.444;2022-07-23T05:48:55;18.90;64.20
68719;DHT22;55696;52.138;5.444;2022-07-23T05:51:41;19.90;64.50
68719;DHT22;55696;52.138;5.444;2022-07-23T05:54:08;19.10;64.00
68719;DHT22;55696;52.138;5.444;2022-07-23T05:56:37;19.20;63.70
68719;DHT22;55696;52.138;5.444;2022-07-23T05:59:04;19.30;63.60
68719;DHT22;55696;52.138;5.444;2022-07-23T06:01:31;19.10;63.30
68719;DHT22;55696;52.138;5.444;2022-07-23T06:04:06;19.40;63.20
68719;DHT22;55696;52.138;5.444;2022-07-23T06:06:37;19.40;62.80
68719;DHT22;55696;52.138;5.444;2022-07-23T06:09:05;19.50;62.60
68719;DHT22;55696;52.138;5.444;2022-07-23T06:11:34;19.60;62.30
68719;DHT22;55696;52.138;5.444;2022-07-23T06:14:00;19.80;62.10
68719;DHT22;55696;52.138;5.444;2022-07-23T06:16:40;19.70;61.80
68719;DHT22;55696;52.138;5.444;2022-07-23T06:19:07;19.90;61.50
68719;DHT22;55696;52.138;5.444;2022-07-23T06:21:34;19.80;61.40
68719;DHT22;55696;52.138;5.444;2022-07-23T06:24:12;20.00;61.40
68719;DHT22;55696;52.138;5.444;2022-07-23T06:26:40;20.00;61.10
68719;DHT22;55696;52.138;5.444;2022-07-23T06:29:07;20.00;61.10
68719;DHT22;55696;52.138;5.444;2022-07-23T06:31:33;20.00;60.80
68719;DHT22;55696;52.138;5.444;2022-07-23T06:34:00;20.10;60.60
68719;DHT22;55696;52.138;5.444;2022-07-23T06:36:27;20.30;60.40
68719;DHT22;55696;52.138;5.444;2022-07-23T06:38:54;20.30;60.10
68719;DHT22;55696;52.138;5.444;2022-07-23T06:41:21;20.40;59.90
68719;DHT22;55696;52.138;5.444;2022-07-23T06:43:49;20.50;59.70
68719;DHT22;55696;52.138;5.444;2022-07-23T06:46:16;20.60;59.70
68719;DHT22;55696;52.138;5.444;2022-07-23T06:48:43;20.60;59.40
68719;DHT22;55696;52.138;5.444;2022-07-23T06:51:10;20.60;59.10
68719;DHT22;55696;52.138;5.444;2022-07-23T06:53:37;20.60;59.00
68719;DHT22;55696;52.138;5.444;2022-07-23T06:56:04;20.70;58.90
68719;DHT22;55696;52.138;5.444;2022-07-23T06:58:32;20.80;58.90
68719;DHT22;55696;52.138;5.444;2022-07-23T07:00:59;20.90;58.50
68719;DHT22;55696;52.138;5.444;2022-07-23T07:03:25;21.00;58.70
68719;DHT22;55696;52.138;5.444;2022-07-23T07:05:52;21.00;58.00
68719;DHT22;55696;52.138;5.444;2022-07-23T07:08:19;21.00;58.30
68719;DHT22;55696;52.138;5.444;2022-07-23T07:10:46;20.90;58.00
68719;DHT22;55696;52.138;5.444;2022-07-23T07:13:13;21.00;58.20
68719;DHT22;55696;52.138;5.444;2022-07-23T07:15:39;21.20;57.90
68719;DHT22;55696;52.138;5.444;2022-07-23T07:18:06;21.20;57.60
68719;DHT22;55696;52.138;5.444;2022-07-23T07:20:33;21.30;57.60
68719;DHT22;55696;52.138;5.444;2022-07-23T07:23:00;21.40;57.50
68719;DHT22;55696;52.138;5.444;2022-07-23T07:25:27;21.50;57.40
68719;DHT22;55696;52.138;5.444;2022-07-23T07:27:53;21.60;57.00
68719;DHT22;55696;52.138;5.444;2022-07-23T07:30:20;21.70;56.70
68719;DHT22;55696;52.138;5.444;2022-07-23T07:32:47;21.60;56.20
68719;DHT22;55696;52.138;5.444;2022-07-23T07:35:23;21.90;55.90
68719;DHT22;55696;52.138;5.444;2022-07-23T07:37:50;21.90;55.00
68719;DHT22;55696;52.138;5.444;2022-07-23T07:40:18;22.00;54.60
68719;DHT22;55696;52.138;5.444;2022-07-23T07:42:46;22.00;54.40
68719;DHT22;55696;52.138;5.444;2022-07-23T07:45:13;22.10;54.40
68719;DHT22;55696;52.138;5.444;2022-07-23T07:47:41;22.10;53.90
68719;DHT22;55696;52.138;5.444;2022-07-23T07:50:08;22.00;53.80
68719;DHT22;55696;52.138;5.444;2022-07-23T07:52:38;22.00;53.70
68719;DHT22;55696;52.138;5.444;2022-07-23T07:55:06;22.00;53.70
68719;DHT22;55696;52.138;5.444;2022-07-23T07:57:34;22.00;53.60
68719;DHT22;55696;52.138;5.444;2022-07-23T08:00:06;22.00;53.20
68719;DHT22;55696;52.138;5.444;2022-07-23T08:02:47;22.10;53.10
68719;DHT22;55696;52.138;5.444;2022-07-23T08:05:19;22.70;53.40
68719;DHT22;55696;52.138;5.444;2022-07-23T08:07:54;22.20;53.10
68719;DHT22;55696;52.138;5.444;2022-07-23T08:10:20;22.30;52.80
68719;DHT22;55696;52.138;5.444;2022-07-23T08:12:50;22.30;52.90
68719;DHT22;55696;52.138;5.444;2022-07-23T08:15:19;22.30;52.60
68719;DHT22;55696;52.138;5.444;2022-07-23T08:17:47;22.40;52.30
68719;DHT22;55696;52.138;5.444;2022-07-23T08:20:18;22.40;51.90
68719;DHT22;55696;52.138;5.444;2022-07-23T08:23:00;22.60;51.80
68719;DHT22;55696;52.138;5.444;2022-07-23T08:25:31;22.50;51.80
68719;DHT22;55696;52.138;5.444;2022-07-23T08:28:00;22.60;51.70
68719;DHT22;55696;52.138;5.444;2022-07-23T08:30:27;22.60;51.70
68719;DHT22;55696;52.138;5.444;2022-07-23T08:33:01;22.70;51.30
68719;DHT22;55696;52.138;5.444;2022-07-23T08:35:34;22.70;51.00
68719;DHT22;55696;52.138;5.444;2022-07-23T08:38:03;22.70;50.80
68719;DHT22;55696;52.138;5.444;2022-07-23T08:40:34;22.80;50.50
68719;DHT22;55696;52.138;5.444;2022-07-23T08:43:10;22.60;50.20
68719;DHT22;55696;52.138;5.444;2022-07-23T08:45:39;22.90;50.70
68719;DHT22;55696;52.138;5.444;2022-07-23T08:48:08;22.80;50.80
68719;DHT22;55696;52.138;5.444;2022-07-23T08:50:37;22.70;51.10
68719;DHT22;55696;52.138;5.444;2022-07-23T08:53:06;22.70;51.20
68719;DHT22;55696;52.138;5.444;2022-07-23T08:55:33;22.80;51.30
68719;DHT22;55696;52.138;5.444;2022-07-23T08:58:01;22.90;51.00
68719;DHT22;55696;52.138;5.444;2022-07-23T09:00:28;23.00;50.80
68719;DHT22;55696;52.138;5.444;2022-07-23T09:02:55;23.20;50.80
68719;DHT22;55696;52.138;5.444;2022-07-23T09:05:22;23.20;50.60
68719;DHT22;55696;52.138;5.444;2022-07-23T09:10:56;23.20;50.30
68719;DHT22;55696;52.138;5.444;2022-07-23T09:13:35;23.60;50.50
68719;DHT22;55696;52.138;5.444;2022-07-23T09:16:04;23.10;50.10
68719;DHT22;55696;52.138;5.444;2022-07-23T09:21:17;23.30;49.80
68719;DHT22;55696;52.138;5.444;2022-07-23T09:28:57;23.40;49.50
68719;DHT22;55696;52.138;5.444;2022-07-23T09:31:25;23.40;49.40
68719;DHT22;55696;52.138;5.444;2022-07-23T09:34:11;23.40;49.90
68719;DHT22;55696;52.138;5.444;2022-07-23T09:36:38;23.20;49.50
68719;DHT22;55696;52.138;5.444;2022-07-23T09:39:06;23.50;49.60
68719;DHT22;55696;52.138;5.444;2022-07-23T09:41:44;23.40;49.70
68719;DHT22;55696;52.138;5.444;2022-07-23T09:44:16;23.50;49.80
68719;DHT22;55696;52.138;5.444;2022-07-23T09:46:48;23.80;49.80
68719;DHT22;55696;52.138;5.444;2022-07-23T09:49:16;24.20;49.50
68719;DHT22;55696;52.138;5.444;2022-07-23T09:51:48;24.00;48.20
68719;DHT22;55696;52.138;5.444;2022-07-23T09:54:28;23.90;48.00
68719;DHT22;55696;52.138;5.444;2022-07-23T09:56:59;23.70;48.10
68719;DHT22;55696;52.138;5.444;2022-07-23T09:59:28;23.70;48.20
68719;DHT22;55696;52.138;5.444;2022-07-23T10:01:57;23.60;48.50
68719;DHT22;55696;52.138;5.444;2022-07-23T10:04:29;23.80;48.80
68719;DHT22;55696;52.138;5.444;2022-07-23T10:07:04;23.90;48.70
68719;DHT22;55696;52.138;5.444;2022-07-23T10:09:50;23.90;48.70
68719;DHT22;55696;52.138;5.444;2022-07-23T10:12:38;24.00;48.60
68719;DHT22;55696;52.138;5.444;2022-07-23T10:15:11;24.80;48.60
68719;DHT22;55696;52.138;5.444;2022-07-23T10:17:39;24.30;47.50
68719;DHT22;55696;52.138;5.444;2022-07-23T10:20:06;24.30;47.80
68719;DHT22;55696;52.138;5.444;2022-07-23T10:22:37;24.20;47.20
68719;DHT22;55696;52.138;5.444;2022-07-23T10:28:26;24.20;47.30
68719;DHT22;55696;52.138;5.444;2022-07-23T10:36:49;24.30;46.90
68719;DHT22;55696;52.138;5.444;2022-07-23T10:41:47;24.60;46.00
68719;DHT22;55696;52.138;5.444;2022-07-23T10:44:13;24.70;46.20
68719;DHT22;55696;52.138;5.444;2022-07-23T10:47:00;24.80;45.90
68719;DHT22;55696;52.138;5.444;2022-07-23T10:49:43;24.70;45.60
68719;DHT22;55696;52.138;5.444;2022-07-23T10:54:42;24.80;44.70
68719;DHT22;55696;52.138;5.444;2022-07-23T10:57:10;25.60;45.20
68719;DHT22;55696;52.138;5.444;2022-07-23T11:02:31;25.40;45.20
68719;DHT22;55696;52.138;5.444;2022-07-23T11:05:09;25.50;43.80
68719;DHT22;55696;52.138;5.444;2022-07-23T11:10:42;25.50;43.00
68719;DHT22;55696;52.138;5.444;2022-07-23T11:24:00;26.50;43.00
68719;DHT22;55696;52.138;5.444;2022-07-23T11:31:59;25.90;41.00
68719;DHT22;55696;52.138;5.444;2022-07-23T11:37:08;26.20;40.80
68719;DHT22;55696;52.138;5.444;2022-07-23T11:39:36;26.40;40.90
68719;DHT22;55696;52.138;5.444;2022-07-23T11:42:04;26.30;41.00
68719;DHT22;55696;52.138;5.444;2022-07-23T11:44:37;26.60;40.60
68719;DHT22;55696;52.138;5.444;2022-07-23T11:47:11;26.60;41.00
68719;DHT22;55696;52.138;5.444;2022-07-23T11:49:58;26.80;41.30
68719;DHT22;55696;52.138;5.444;2022-07-23T11:52:27;26.90;40.00
68719;DHT22;55696;52.138;5.444;2022-07-23T11:55:03;26.70;39.40
68719;DHT22;55696;52.138;5.444;2022-07-23T11:57:35;26.90;39.70
68719;DHT22;55696;52.138;5.444;2022-07-23T12:02:50;27.00;40.10
68719;DHT22;55696;52.138;5.444;2022-07-23T12:05:22;26.90;39.50
68719;DHT22;55696;52.138;5.444;2022-07-23T12:07:53;27.40;39.10
68719;DHT22;55696;52.138;5.444;2022-07-23T12:10:29;27.70;38.80
68719;DHT22;55696;52.138;5.444;2022-07-23T12:13:05;28.00;38.20
68719;DHT22;55696;52.138;5.444;2022-07-23T12:15:35;28.00;38.60
68719;DHT22;55696;52.138;5.444;2022-07-23T12:18:05;28.10;38.30
68719;DHT22;55696;52.138;5.444;2022-07-23T12:20:35;28.20;39.10
68719;DHT22;55696;52.138;5.444;2022-07-23T12:23:05;28.10;38.90
68719;DHT22;55696;52.138;5.444;2022-07-23T12:25:38;28.20;38.40
68719;DHT22;55696;52.138;5.444;2022-07-23T12:28:31;28.70;38.10
68719;DHT22;55696;52.138;5.444;2022-07-23T12:30:59;28.90;37.80
68719;DHT22;55696;52.138;5.444;2022-07-23T12:35:57;29.40;36.80
68719;DHT22;55696;52.138;5.444;2022-07-23T12:38:27;29.60;36.50
68719;DHT22;55696;52.138;5.444;2022-07-23T12:40:58;29.70;36.70
68719;DHT22;55696;52.138;5.444;2022-07-23T12:43:40;29.70;37.00
68719;DHT22;55696;52.138;5.444;2022-07-23T12:46:10;29.90;37.90
68719;DHT22;55696;52.138;5.444;2022-07-23T12:48:58;30.00;35.30
68719;DHT22;55696;52.138;5.444;2022-07-23T12:51:29;29.80;35.80
68719;DHT22;55696;52.138;5.444;2022-07-23T12:56:31;29.90;36.70
68719;DHT22;55696;52.138;5.444;2022-07-23T13:01:38;30.40;36.20
68719;DHT22;55696;52.138;5.444;2022-07-23T13:04:08;30.20;36.20
68719;DHT22;55696;52.138;5.444;2022-07-23T13:06:57;30.40;36.60
68719;DHT22;55696;52.138;5.444;2022-07-23T13:09:28;30.20;36.00
68719;DHT22;55696;52.138;5.444;2022-07-23T13:11:59;30.30;36.60
68719;DHT22;55696;52.138;5.444;2022-07-23T13:14:27;30.40;36.20
68719;DHT22;55696;52.138;5.444;2022-07-23T13:16:55;30.10;36.00
68719;DHT22;55696;52.138;5.444;2022-07-23T13:19:25;29.90;35.80
68719;DHT22;55696;52.138;5.444;2022-07-23T13:21:53;29.60;36.60
68719;DHT22;55696;52.138;5.444;2022-07-23T13:24:21;29.40;36.40
68719;DHT22;55696;52.138;5.444;2022-07-23T13:26:48;29.60;37.10
68719;DHT22;55696;52.138;5.444;2022-07-23T13:29:17;30.00;37.00
68719;DHT22;55696;52.138;5.444;2022-07-23T13:31:46;30.50;36.20
68719;DHT22;55696;52.138;5.444;2022-07-23T13:34:14;30.90;35.70
68719;DHT22;55696;52.138;5.444;2022-07-23T13:36:41;31.00;34.30
68719;DHT22;55696;52.138;5.444;2022-07-23T13:39:09;31.10;34.00
68719;DHT22;55696;52.138;5.444;2022-07-23T13:41:38;31.40;34.70
68719;DHT22;55696;52.138;5.444;2022-07-23T13:44:05;31.30;33.90
68719;DHT22;55696;52.138;5.444;2022-07-23T13:46:33;31.50;34.70
68719;DHT22;55696;52.138;5.444;2022-07-23T13:49:00;31.70;34.60
68719;DHT22;55696;52.138;5.444;2022-07-23T13:51:28;32.20;34.80
68719;DHT22;55696;52.138;5.444;2022-07-23T13:53:55;32.60;33.20
68719;DHT22;55696;52.138;5.444;2022-07-23T13:56:25;32.00;32.20
68719;DHT22;55696;52.138;5.444;2022-07-23T13:58:52;31.70;33.80
68719;DHT22;55696;52.138;5.444;2022-07-23T14:01:19;31.70;34.60
68719;DHT22;55696;52.138;5.444;2022-07-23T14:03:46;32.40;34.30
68719;DHT22;55696;52.138;5.444;2022-07-23T14:06:13;32.10;33.30
68719;DHT22;55696;52.138;5.444;2022-07-23T14:08:43;31.70;33.20
68719;DHT22;55696;52.138;5.444;2022-07-23T14:11:12;31.50;33.60
68719;DHT22;55696;52.138;5.444;2022-07-23T14:13:39;31.20;34.10
68719;DHT22;55696;52.138;5.444;2022-07-23T14:16:06;30.80;34.00
68719;DHT22;55696;52.138;5.444;2022-07-23T14:18:33;30.50;35.00
68719;DHT22;55696;52.138;5.444;2022-07-23T14:21:01;30.80;35.50
68719;DHT22;55696;52.138;5.444;2022-07-23T14:23:28;30.40;34.90
68719;DHT22;55696;52.138;5.444;2022-07-23T14:25:56;30.80;35.90
68719;DHT22;55696;52.138;5.444;2022-07-23T14:28:23;30.10;36.10
68719;DHT22;55696;52.138;5.444;2022-07-23T14:30:50;30.00;36.00
68719;DHT22;55696;52.138;5.444;2022-07-23T14:33:17;29.70;36.10
68719;DHT22;55696;52.138;5.444;2022-07-23T14:35:44;29.40;36.30
68719;DHT22;55696;52.138;5.444;2022-07-23T14:38:11;29.20;37.20
68719;DHT22;55696;52.138;5.444;2022-07-23T14:40:40;29.00;36.90
68719;DHT22;55696;52.138;5.444;2022-07-23T14:43:07;29.10;37.30
68719;DHT22;55696;52.138;5.444;2022-07-23T14:45:36;29.20;36.80
68719;DHT22;55696;52.138;5.444;2022-07-23T14:48:03;29.30;36.90
68719;DHT22;55696;52.138;5.444;2022-07-23T14:50:30;29.30;36.80
68719;DHT22;55696;52.138;5.444;2022-07-23T14:52:57;29.30;36.30
68719;DHT22;55696;52.138;5.444;2022-07-23T14:55:24;29.20;35.90
68719;DHT22;55696;52.138;5.444;2022-07-23T14:57:51;29.40;36.60
68719;DHT22;55696;52.138;5.444;2022-07-23T15:00:18;29.50;36.80
68719;DHT22;55696;52.138;5.444;2022-07-23T15:02:50;29.70;37.20
68719;DHT22;55696;52.138;5.444;2022-07-23T15:05:21;30.10;37.20
68719;DHT22;55696;52.138;5.444;2022-07-23T15:07:48;30.30;36.30
68719;DHT22;55696;52.138;5.444;2022-07-23T15:10:16;30.40;36.10
68719;DHT22;55696;52.138;5.444;2022-07-23T15:12:47;30.50;36.20
68719;DHT22;55696;52.138;5.444;2022-07-23T15:15:14;30.50;36.20
68719;DHT22;55696;52.138;5.444;2022-07-23T15:17:41;30.70;36.40
68719;DHT22;55696;52.138;5.444;2022-07-23T15:20:09;30.50;36.20
68719;DHT22;55696;52.138;5.444;2022-07-23T15:22:36;30.80;35.50
68719;DHT22;55696;52.138;5.444;2022-07-23T15:25:03;31.10;34.80
68719;DHT22;55696;52.138;5.444;2022-07-23T15:27:31;31.40;35.00
68719;DHT22;55696;52.138;5.444;2022-07-23T15:29:58;31.50;34.10
68719;DHT22;55696;52.138;5.444;2022-07-23T15:32:25;31.30;33.70
68719;DHT22;55696;52.138;5.444;2022-07-23T15:34:54;30.70;33.40
68719;DHT22;55696;52.138;5.444;2022-07-23T15:37:21;30.40;35.00
68719;DHT22;55696;52.138;5.444;2022-07-23T15:39:50;30.10;34.90
68719;DHT22;55696;52.138;5.444;2022-07-23T15:42:19;29.90;35.20
68719;DHT22;55696;52.138;5.444;2022-07-23T15:44:46;29.50;36.10
68719;DHT22;55696;52.138;5.444;2022-07-23T15:47:15;29.40;36.90
68719;DHT22;55696;52.138;5.444;2022-07-23T15:49:43;29.10;37.10
68719;DHT22;55696;52.138;5.444;2022-07-23T15:52:11;28.90;37.30
68719;DHT22;55696;52.138;5.444;2022-07-23T15:54:38;29.00;38.00
68719;DHT22;55696;52.138;5.444;2022-07-23T15:57:06;28.60;38.50
68719;DHT22;55696;52.138;5.444;2022-07-23T15:59:33;28.30;39.00
68719;DHT22;55696;52.138;5.444;2022-07-23T16:02:00;28.30;39.20
68719;DHT22;55696;52.138;5.444;2022-07-23T16:04:27;28.40;39.40
68719;DHT22;55696;52.138;5.444;2022-07-23T16:06:55;28.40;39.70
68719;DHT22;55696;52.138;5.444;2022-07-23T16:09:22;28.60;40.30
68719;DHT22;55696;52.138;5.444;2022-07-23T16:11:49;28.40;40.00
68719;DHT22;55696;52.138;5.444;2022-07-23T16:14:16;28.40;40.30
68719;DHT22;55696;52.138;5.444;2022-07-23T16:16:43;28.30;40.50
68719;DHT22;55696;52.138;5.444;2022-07-23T16:19:09;28.10;40.20
68719;DHT22;55696;52.138;5.444;2022-07-23T16:21:36;28.00;40.60
68719;DHT22;55696;52.138;5.444;2022-07-23T16:24:03;27.80;40.80
68719;DHT22;55696;52.138;5.444;2022-07-23T16:26:31;27.90;41.20
68719;DHT22;55696;52.138;5.444;2022-07-23T16:28:57;27.80;41.50
68719;DHT22;55696;52.138;5.444;2022-07-23T16:31:25;28.10;41.70
68719;DHT22;55696;52.138;5.444;2022-07-23T16:33:53;28.20;41.30
68719;DHT22;55696;52.138;5.444;2022-07-23T16:36:20;28.50;41.60
68719;DHT22;55696;52.138;5.444;2022-07-23T16:38:50;28.50;41.50
68719;DHT22;55696;52.138;5.444;2022-07-23T16:41:17;28.80;40.40